Time;durP1;ratioP1;P1;durP2;ratioP2;P2;SDS_P1;SDS_P2;PMS_P1;PMS_P2;Temp;Humidity;BMP_temperature;BMP_pressure;BME280_temperature;BME280_humidity;BME280_pressure;Samples;Min_cycle;Max_cycle;Signal;HPM_P1;HPM_P2
2022/08/29 00:01:57;;;;;;;2.85;1.73;;;21.60;81.80;;;;;;4914818;29;20107;-82
2022/08/29 00:04:22;;;;;;;2.83;1.70;;;21.60;81.40;;;;;;4897612;29;20094;-82
2022/08/29 00:06:48;;;;;;;3.22;1.90;;;21.60;81.40;;;;;;4914599;29;20074;-82
2022/08/29 00:09:14;;;;;;;3.25;1.80;;;21.60;81.60;;;;;;4914278;29;20184;-82
2022/08/29 00:11:39;;;;;;;5.35;2.10;;;21.60;81.80;;;;;;4913677;29;20031;-82
2022/08/29 00:14:05;;;;;;;3.53;2.03;;;21.60;81.70;;;;;;4914286;29;20043;-82
2022/08/29 00:16:30;;;;;;;5.70;2.03;;;21.60;81.40;;;;;;4914723;29;20286;-82
2022/08/29 00:18:57;;;;;;;5.78;2.17;;;21.50;81.90;;;;;;4914332;29;20079;-82
2022/08/29 00:21:22;;;;;;;4.15;1.95;;;21.50;82.40;;;;;;4914410;29;20069;-82
2022/08/29 00:23:48;;;;;;;3.80;1.95;;;21.40;82.40;;;;;;4914233;29;20104;-82
2022/08/29 00:26:14;;;;;;;4.47;2.10;;;21.40;82.10;;;;;;4913934;29;20044;-82
2022/08/29 00:28:39;;;;;;;5.85;2.42;;;21.40;82.60;;;;;;4914144;29;20028;-82
2022/08/29 00:31:05;;;;;;;4.07;2.00;;;21.40;83.10;;;;;;4913939;29;20397;-82
2022/08/29 00:33:31;;;;;;;4.15;2.17;;;21.40;82.90;;;;;;4914385;29;20039;-82
2022/08/29 00:35:57;;;;;;;4.57;2.28;;;21.40;83.40;;;;;;4914005;29;20036;-82
2022/08/29 00:38:22;;;;;;;9.30;2.20;;;21.40;83.60;;;;;;4914272;29;20088;-82
2022/08/29 00:40:51;;;;;;;3.72;1.85;;;21.30;83.70;;;;;;4913907;29;20028;-82
2022/08/29 00:43:20;;;;;;;2.80;1.85;;;21.30;84.20;;;;;;4914143;29;20021;-81
2022/08/29 00:45:56;;;;;;;4.22;1.92;;;21.30;84.30;;;;;;4913985;29;20032;-81
2022/08/29 00:48:22;;;;;;;5.03;2.13;;;21.30;84.50;;;;;;4913481;29;20028;-82
2022/08/29 00:50:57;;;;;;;4.25;2.03;;;21.20;84.20;;;;;;4913692;29;20028;-82
2022/08/29 00:53:41;;;;;;;4.60;2.00;;;21.20;84.60;;;;;;4913491;29;20100;-82
2022/08/29 00:56:08;;;;;;;2.85;1.60;;;21.20;84.40;;;;;;4913994;29;20024;-82
2022/08/29 00:58:40;;;;;;;5.78;1.85;;;21.10;84.90;;;;;;4913635;29;20027;-82
2022/08/29 01:01:05;;;;;;;3.50;1.80;;;21.10;85.00;;;;;;4913796;29;20067;-82
2022/08/29 01:03:34;;;;;;;3.50;1.88;;;21.10;85.70;;;;;;4913773;29;20059;-82
2022/08/29 01:06:01;;;;;;;5.88;1.75;;;21.10;85.40;;;;;;4913697;29;20024;-82
2022/08/29 01:08:29;;;;;;;4.45;1.90;;;21.10;85.30;;;;;;4890853;29;20091;-82
2022/08/29 01:13:41;;;;;;;;;;;21.10;86.10;;;;;;4914063;29;20565;-82
2022/08/29 01:16:08;;;;;;;3.08;1.70;;;21.00;86.40;;;;;;4913510;29;20272;-82
2022/08/29 01:18:36;;;;;;;3.70;1.70;;;21.00;86.50;;;;;;4913597;29;20401;-82
2022/08/29 01:21:21;;;;;;;4.25;1.80;;;21.00;86.80;;;;;;4913534;29;20082;-82
2022/08/29 01:23:57;;;;;;;;;;;21.00;86.70;;;;;;4913689;29;20020;-82
2022/08/29 01:26:27;;;;;;;3.30;1.80;;;20.90;86.60;;;;;;4913362;29;19919;-82
2022/08/29 01:28:54;;;;;;;4.15;1.90;;;20.90;86.70;;;;;;4913435;29;20064;-82
2022/08/29 01:31:24;;;;;;;4.22;2.05;;;20.90;87.10;;;;;;4913283;29;20072;-82
2022/08/29 01:33:55;;;;;;;4.43;2.10;;;20.90;87.40;;;;;;4913173;29;20032;-83
2022/08/29 01:36:37;;;;;;;4.22;2.20;;;20.90;87.30;;;;;;4913213;29;20111;-82
2022/08/29 01:39:04;;;;;;;3.28;2.00;;;20.90;87.60;;;;;;4908965;29;20036;-82
2022/08/29 01:41:31;;;;;;;3.67;1.90;;;20.80;87.90;;;;;;4913308;29;20103;-82
2022/08/29 01:43:57;;;;;;;2.97;1.80;;;20.80;88.10;;;;;;4913456;29;20107;-82
2022/08/29 01:46:30;;;;;;;3.75;1.98;;;20.80;88.00;;;;;;4913267;29;20103;-82
2022/08/29 01:48:56;;;;;;;3.10;1.83;;;20.80;88.50;;;;;;4913345;29;20405;-83
2022/08/29 01:51:23;;;;;;;8.52;2.03;;;20.70;88.40;;;;;;4913293;29;20028;-82
2022/08/29 01:53:50;;;;;;;5.35;1.85;;;20.80;88.70;;;;;;4913091;29;20047;-82
2022/08/29 01:56:20;;;;;;;5.25;1.90;;;20.80;89.40;;;;;;4913343;29;20103;-82
2022/08/29 01:58:47;;;;;;;4.20;1.75;;;20.80;89.00;;;;;;4913197;29;20462;-82
2022/08/29 02:01:17;;;;;;;4.03;1.92;;;20.80;89.10;;;;;;4913266;29;20024;-82
2022/08/29 02:03:44;;;;;;;4.25;2.15;;;20.70;89.00;;;;;;4913223;29;20033;-83
2022/08/29 02:06:09;;;;;;;6.72;2.08;;;20.70;89.30;;;;;;4913408;29;20056;-82
2022/08/29 02:08:37;;;;;;;4.43;2.00;;;20.80;89.40;;;;;;4913016;29;20059;-82
2022/08/29 02:11:08;;;;;;;5.20;2.25;;;20.70;89.70;;;;;;4912951;29;20536;-82
2022/08/29 02:13:35;;;;;;;6.95;2.40;;;20.70;90.10;;;;;;4912892;29;20075;-82
2022/08/29 02:16:01;;;;;;;4.32;2.20;;;20.80;89.70;;;;;;4896085;29;20229;-82
2022/08/29 02:18:26;;;;;;;4.28;2.30;;;20.80;90.00;;;;;;4913074;29;20159;-82
2022/08/29 02:20:52;;;;;;;3.22;2.10;;;20.70;90.00;;;;;;4912907;29;20028;-82
2022/08/29 02:23:18;;;;;;;4.05;2.55;;;20.70;90.10;;;;;;4913296;29;20021;-82
2022/08/29 02:25:46;;;;;;;6.53;1.90;;;20.80;90.20;;;;;;4912692;29;20063;-82
2022/08/29 02:28:14;;;;;;;4.10;2.00;;;20.70;90.50;;;;;;4913383;29;20192;-82
2022/08/29 02:30:47;;;;;;;3.25;2.20;;;20.80;90.40;;;;;;4913008;29;20123;-82
2022/08/29 02:33:16;;;;;;;4.15;2.47;;;20.70;90.40;;;;;;4912874;29;20020;-82
2022/08/29 02:35:41;;;;;;;7.05;2.70;;;20.70;90.40;;;;;;4915806;29;20028;-82
2022/08/29 02:38:08;;;;;;;6.72;2.58;;;20.70;90.50;;;;;;4916541;29;20079;-82
2022/08/29 02:40:35;;;;;;;4.13;2.40;;;20.70;90.60;;;;;;4916142;29;20035;-82
2022/08/29 02:43:01;;;;;;;4.53;2.28;;;20.70;90.40;;;;;;4916091;29;20031;-82
2022/08/29 02:45:27;;;;;;;5.82;2.40;;;20.70;90.70;;;;;;4916429;29;20008;-82
2022/08/29 02:47:53;;;;;;;5.20;2.78;;;20.70;90.80;;;;;;4915947;29;20552;-82
2022/08/29 02:50:19;;;;;;;5.10;2.20;;;20.80;90.60;;;;;;4916216;29;20047;-82
2022/08/29 02:52:45;;;;;;;6.03;2.28;;;20.70;90.70;;;;;;4916211;29;20039;-82
2022/08/29 02:55:18;;;;;;;6.07;2.38;;;20.70;90.70;;;;;;4916000;29;20032;-82
2022/08/29 02:57:44;;;;;;;5.50;2.40;;;20.70;90.80;;;;;;4909895;29;20115;-82
2022/08/29 03:00:15;;;;;;;4.07;2.13;;;20.70;90.80;;;;;;4915832;29;20060;-82
2022/08/29 03:02:42;;;;;;;4.65;2.80;;;20.70;90.90;;;;;;4909772;29;20024;-82
2022/08/29 03:05:08;;;;;;;7.50;2.60;;;20.70;91.10;;;;;;4910199;29;20056;-82
2022/08/29 03:07:33;;;;;;;4.32;2.55;;;20.70;91.00;;;;;;4915900;29;20063;-82
2022/08/29 03:09:59;;;;;;;7.03;2.30;;;20.60;91.10;;;;;;4915551;29;20056;-82
2022/08/29 03:12:26;;;;;;;5.30;2.53;;;20.60;91.40;;;;;;4915673;29;20035;-82
2022/08/29 03:14:52;;;;;;;6.68;2.40;;;20.60;91.40;;;;;;4915383;29;20055;-82
2022/08/29 03:17:17;;;;;;;8.65;2.60;;;20.60;91.50;;;;;;4915265;29;20433;-82
2022/08/29 03:19:43;;;;;;;5.20;3.03;;;20.50;91.60;;;;;;4915488;29;20028;-82
2022/08/29 03:22:09;;;;;;;6.75;3.08;;;20.40;91.70;;;;;;4915539;29;20571;-82
2022/08/29 03:24:35;;;;;;;3.50;2.55;;;20.40;91.80;;;;;;4915263;29;20307;-82
2022/08/29 03:27:01;;;;;;;3.40;2.60;;;20.40;91.90;;;;;;4915273;29;20099;-82
2022/08/29 03:29:27;;;;;;;4.45;2.25;;;20.40;91.90;;;;;;4915461;29;20052;-82
2022/08/29 03:31:57;;;;;;;3.65;2.70;;;20.40;92.00;;;;;;4915467;29;20285;-82
2022/08/29 03:34:23;;;;;;;4.00;2.67;;;20.40;92.10;;;;;;4915056;29;20063;-82
2022/08/29 03:36:49;;;;;;;6.55;3.05;;;20.40;92.20;;;;;;4913858;29;20413;-82
2022/08/29 03:39:15;;;;;;;5.78;2.95;;;20.40;92.40;;;;;;4914572;29;20032;-82
2022/08/29 03:41:41;;;;;;;5.05;3.20;;;20.30;92.40;;;;;;4915452;29;20060;-82
2022/08/29 03:44:07;;;;;;;6.57;2.85;;;20.40;92.50;;;;;;4915110;29;20509;-82
2022/08/29 03:46:35;;;;;;;6.72;3.58;;;20.30;92.70;;;;;;4897039;29;20067;-82
2022/08/29 03:49:00;;;;;;;5.00;2.78;;;20.30;92.80;;;;;;4914973;29;20032;-82
2022/08/29 03:51:26;;;;;;;8.00;3.08;;;20.30;92.90;;;;;;4897881;29;20035;-82
2022/08/29 03:53:53;;;;;;;4.72;3.22;;;20.30;93.00;;;;;;4914281;29;20062;-82
2022/08/29 03:56:19;;;;;;;5.35;3.45;;;20.30;93.00;;;;;;4914683;29;20115;-82
2022/08/29 03:58:46;;;;;;;4.45;3.40;;;20.30;93.20;;;;;;4914504;29;20032;-82
2022/08/29 04:01:12;;;;;;;7.85;3.35;;;20.30;93.20;;;;;;4915254;29;20385;-82
2022/08/29 04:03:37;;;;;;;6.03;3.05;;;20.30;93.40;;;;;;4914728;29;20032;-83
2022/08/29 04:06:04;;;;;;;4.38;2.88;;;20.20;93.50;;;;;;4914728;29;20115;-82
2022/08/29 04:08:30;;;;;;;6.13;3.67;;;20.20;93.70;;;;;;4914806;29;20025;-82
2022/08/29 04:10:58;;;;;;;6.22;3.40;;;20.20;93.80;;;;;;4922332;29;20027;-86
2022/08/29 04:13:24;;;;;;;5.93;3.65;;;20.20;94.00;;;;;;4924051;29;20380;-87
2022/08/29 04:15:50;;;;;;;5.22;3.83;;;20.10;94.00;;;;;;4915580;29;20032;-86
2022/08/29 04:18:16;;;;;;;6.88;3.42;;;20.20;94.10;;;;;;4914517;29;20024;-86
2022/08/29 04:20:43;;;;;;;7.22;4.00;;;20.20;94.00;;;;;;4914839;29;20036;-85
2022/08/29 04:23:11;;;;;;;5.95;3.58;;;20.20;94.20;;;;;;4921787;29;20024;-87
2022/08/29 04:25:38;;;;;;;5.70;3.22;;;20.20;94.30;;;;;;4896996;29;20106;-86
2022/08/29 04:28:06;;;;;;;7.60;3.90;;;20.20;94.30;;;;;;4914279;29;20062;-86
2022/08/29 04:30:32;;;;;;;5.68;3.72;;;20.20;94.30;;;;;;4914248;29;20035;-86
2022/08/29 04:32:58;;;;;;;5.78;3.35;;;20.20;94.40;;;;;;4913936;29;20529;-86
2022/08/29 04:35:24;;;;;;;5.03;3.50;;;20.20;94.40;;;;;;4914441;29;20131;-86
2022/08/29 04:37:50;;;;;;;6.32;3.58;;;20.20;94.50;;;;;;4915765;29;20020;-86
2022/08/29 04:40:18;;;;;;;4.07;3.25;;;20.10;94.80;;;;;;4925523;29;20024;-86
2022/08/29 04:42:48;;;;;;;7.53;4.38;;;20.10;94.80;;;;;;4924754;29;20035;-86
2022/08/29 04:45:16;;;;;;;6.70;3.47;;;20.10;94.90;;;;;;4924768;29;20028;-86
2022/08/29 04:47:43;;;;;;;7.25;3.70;;;20.10;95.10;;;;;;4924961;29;20024;-86
2022/08/29 04:50:13;;;;;;;7.95;3.60;;;20.10;95.20;;;;;;4925064;29;20032;-86
2022/08/29 04:52:39;;;;;;;7.60;3.70;;;20.10;95.30;;;;;;4929573;29;20026;-86
2022/08/29 04:55:06;;;;;;;4.18;3.45;;;20.10;95.20;;;;;;4928764;29;20056;-86
2022/08/29 04:57:34;;;;;;;5.00;3.45;;;20.10;95.40;;;;;;4905860;29;20031;-86
2022/08/29 05:00:00;;;;;;;5.38;3.72;;;20.10;95.40;;;;;;4923842;29;20028;-82
2022/08/29 05:02:26;;;;;;;7.88;4.05;;;20.10;95.50;;;;;;4924354;29;20051;-82
2022/08/29 05:04:55;;;;;;;8.07;4.55;;;20.10;95.60;;;;;;4923527;29;20031;-82
2022/08/29 05:07:24;;;;;;;5.43;3.75;;;20.00;95.70;;;;;;4907161;29;20052;-83
2022/08/29 05:09:57;;;;;;;5.57;3.42;;;20.00;95.90;;;;;;4923370;29;20116;-83
2022/08/29 05:12:24;;;;;;;7.97;3.75;;;20.00;96.00;;;;;;4923900;29;20140;-82
2022/08/29 05:14:50;;;;;;;7.35;3.58;;;19.90;96.00;;;;;;4906898;29;20107;-82
2022/08/29 05:17:16;;;;;;;7.13;3.55;;;19.90;96.20;;;;;;4924357;29;20023;-82
2022/08/29 05:19:42;;;;;;;5.15;3.50;;;19.90;96.30;;;;;;4923182;29;20040;-82
2022/08/29 05:22:09;;;;;;;8.48;3.92;;;19.90;96.30;;;;;;4924458;29;20016;-83
2022/08/29 05:24:36;;;;;;;6.57;3.90;;;19.90;96.40;;;;;;4906362;29;20044;-82
2022/08/29 05:27:11;;;;;;;6.82;4.25;;;19.80;96.40;;;;;;4919419;29;20118;-83
2022/08/29 05:29:39;;;;;;;5.32;3.75;;;19.80;96.60;;;;;;4897282;29;20111;-82
2022/08/29 05:32:06;;;;;;;5.93;4.00;;;19.80;96.50;;;;;;4913478;29;20024;-82
2022/08/29 05:34:33;;;;;;;6.57;4.18;;;19.80;96.60;;;;;;4913282;29;20155;-82
2022/08/29 05:36:58;;;;;;;6.53;3.80;;;19.80;96.70;;;;;;4913590;29;20035;-82
2022/08/29 05:39:24;;;;;;;7.03;3.55;;;19.80;96.70;;;;;;4913563;29;20028;-81
2022/08/29 05:41:54;;;;;;;7.60;3.85;;;19.80;96.90;;;;;;4892789;29;20016;-82
2022/08/29 05:44:19;;;;;;;6.72;3.85;;;19.90;96.90;;;;;;4913223;29;20028;-83
2022/08/29 05:46:45;;;;;;;7.57;4.25;;;19.90;96.90;;;;;;4913201;29;20021;-82
2022/08/29 05:49:11;;;;;;;5.85;3.95;;;19.80;96.80;;;;;;4913130;29;20032;-82
2022/08/29 05:51:36;;;;;;;9.02;4.15;;;19.90;97.00;;;;;;4913065;29;20017;-82
2022/08/29 05:54:02;;;;;;;7.25;4.65;;;19.90;97.00;;;;;;4913036;29;20450;-82
2022/08/29 05:56:29;;;;;;;5.78;3.60;;;19.90;97.00;;;;;;4913691;29;20036;-81
2022/08/29 05:58:55;;;;;;;6.35;4.40;;;19.90;97.00;;;;;;4896183;29;20071;-82
2022/08/29 06:01:27;;;;;;;6.95;3.75;;;20.00;97.20;;;;;;4912079;29;20028;-82
2022/08/29 06:03:54;;;;;;;7.32;3.92;;;20.00;97.20;;;;;;4913091;29;20054;-82
2022/08/29 06:06:22;;;;;;;11.07;3.78;;;20.10;97.20;;;;;;4913196;29;20454;-81
2022/08/29 06:08:48;;;;;;;7.05;3.92;;;20.10;97.20;;;;;;4913233;29;20181;-82
2022/08/29 06:11:19;;;;;;;6.47;4.50;;;20.10;97.20;;;;;;4916617;29;20202;-82
2022/08/29 06:13:45;;;;;;;6.47;3.75;;;20.20;97.30;;;;;;4916568;29;20044;-82
2022/08/29 06:16:18;;;;;;;7.05;4.13;;;20.30;97.40;;;;;;4916762;29;20024;-82
2022/08/29 06:18:45;;;;;;;6.43;3.92;;;20.30;97.30;;;;;;4916734;29;20248;-81
2022/08/29 06:21:12;;;;;;;6.13;3.60;;;20.30;97.50;;;;;;4916552;29;20032;-81
2022/08/29 06:23:39;;;;;;;5.20;4.32;;;20.50;97.40;;;;;;4916505;29;20036;-82
2022/08/29 06:26:06;;;;;;;7.13;4.03;;;20.40;97.20;;;;;;4899106;29;20096;-82
2022/08/29 06:28:33;;;;;;;7.93;4.05;;;20.40;97.30;;;;;;4916273;29;20040;-82
2022/08/29 06:31:09;;;;;;;7.22;4.28;;;20.40;97.40;;;;;;4916244;29;20448;-82
2022/08/29 06:33:35;;;;;;;6.45;4.25;;;20.50;97.40;;;;;;4916269;29;20087;-82
2022/08/29 06:36:01;;;;;;;7.43;3.90;;;20.50;97.50;;;;;;4916243;29;20028;-82
2022/08/29 06:38:27;;;;;;;7.78;4.55;;;20.50;97.40;;;;;;4916443;29;20028;-82
2022/08/29 06:40:53;;;;;;;5.95;4.03;;;20.60;97.60;;;;;;4916229;29;20536;-82
2022/08/29 06:43:18;;;;;;;9.75;4.63;;;20.60;97.60;;;;;;4916539;29;20114;-82
2022/08/29 06:45:44;;;;;;;10.48;4.75;;;20.70;97.60;;;;;;4916282;29;20109;-82
2022/08/29 06:48:10;;;;;;;7.15;4.75;;;20.80;97.60;;;;;;4915939;29;20044;-81
2022/08/29 06:50:36;;;;;;;8.40;4.63;;;20.80;97.60;;;;;;4915957;29;20031;-82
2022/08/29 06:53:03;;;;;;;6.40;4.32;;;20.90;97.50;;;;;;4898770;29;20024;-82
2022/08/29 06:55:28;;;;;;;8.57;4.95;;;21.00;97.50;;;;;;4915880;29;20521;-82
2022/08/29 06:57:54;;;;;;;6.53;4.28;;;21.10;97.50;;;;;;4916072;29;20030;-82
2022/08/29 07:00:20;;;;;;;8.65;4.40;;;21.20;97.60;;;;;;4915842;29;20496;-82
2022/08/29 07:02:50;;;;;;;6.28;4.50;;;21.20;97.60;;;;;;4915899;29;20028;-82
2022/08/29 07:05:16;;;;;;;8.65;4.65;;;21.30;97.60;;;;;;4915764;29;20020;-82
2022/08/29 07:07:41;;;;;;;8.48;4.50;;;21.40;97.40;;;;;;4915876;29;20491;-82
2022/08/29 07:10:11;;;;;;;9.65;4.60;;;21.50;97.30;;;;;;4915801;29;20036;-82
2022/08/29 07:12:37;;;;;;;10.00;4.88;;;21.50;97.10;;;;;;4915557;29;20559;-82
2022/08/29 07:15:03;;;;;;;9.85;4.50;;;21.50;97.30;;;;;;4915648;29;20122;-82
2022/08/29 07:17:29;;;;;;;5.55;4.30;;;21.70;97.30;;;;;;4915632;29;20020;-81
2022/08/29 07:19:54;;;;;;;8.98;5.07;;;21.70;97.10;;;;;;4915335;29;20507;-82
2022/08/29 07:22:20;;;;;;;6.53;4.70;;;21.80;97.10;;;;;;4915629;29;20032;-82
2022/08/29 07:24:46;;;;;;;8.93;4.10;;;21.90;97.00;;;;;;4915374;29;20225;-82
2022/08/29 07:27:13;;;;;;;9.98;4.72;;;21.90;97.20;;;;;;4915394;29;20090;-82
2022/08/29 07:29:39;;;;;;;8.05;4.63;;;22.10;97.10;;;;;;4915441;29;20396;-82
2022/08/29 07:32:06;;;;;;;6.55;4.35;;;22.20;97.00;;;;;;4915752;29;20025;-82
2022/08/29 07:34:32;;;;;;;9.50;5.00;;;22.30;96.90;;;;;;4915074;29;20040;-82
2022/08/29 07:36:57;;;;;;;11.00;5.15;;;22.40;96.70;;;;;;4915285;29;20557;-82
2022/08/29 07:39:23;;;;;;;9.70;4.93;;;22.40;96.40;;;;;;4915226;29;20035;-82
2022/08/29 07:41:49;;;;;;;9.63;4.70;;;22.50;96.60;;;;;;4915233;29;20107;-82
2022/08/29 07:44:17;;;;;;;6.80;4.30;;;22.60;96.30;;;;;;4915139;29;20501;-82
2022/08/29 07:46:43;;;;;;;8.23;4.40;;;22.70;96.40;;;;;;4915063;29;20575;-82
2022/08/29 07:49:10;;;;;;;6.88;3.97;;;22.80;96.20;;;;;;4914823;29;20032;-82
2022/08/29 07:51:37;;;;;;;7.43;4.40;;;22.90;96.00;;;;;;4914855;29;20024;-82
2022/08/29 07:54:03;;;;;;;15.27;5.00;;;23.00;96.10;;;;;;4914947;29;20039;-82
2022/08/29 07:56:32;;;;;;;7.03;4.57;;;23.10;95.80;;;;;;4914813;29;20083;-82
2022/08/29 07:58:58;;;;;;;13.95;4.45;;;23.20;95.80;;;;;;4914792;29;20052;-82
2022/08/29 08:01:24;;;;;;;8.23;4.38;;;23.30;95.70;;;;;;4914822;29;20036;-82
2022/08/29 08:03:51;;;;;;;6.70;4.60;;;23.40;95.50;;;;;;4914732;29;20020;-82
2022/08/29 08:06:20;;;;;;;5.07;4.57;;;23.50;95.50;;;;;;4914918;29;20087;-82
2022/08/29 08:08:46;;;;;;;10.77;4.70;;;23.50;95.40;;;;;;4913241;29;20473;-82
2022/08/29 08:11:12;;;;;;;9.60;4.20;;;23.60;95.40;;;;;;4914606;29;20060;-82
2022/08/29 08:13:38;;;;;;;10.30;4.80;;;23.70;95.30;;;;;;4914251;29;20068;-82
2022/08/29 08:16:10;;;;;;;7.03;4.40;;;23.90;95.20;;;;;;4914365;29;20068;-82
2022/08/29 08:18:37;;;;;;;8.30;4.30;;;24.00;95.10;;;;;;4914374;29;20481;-82
2022/08/29 08:21:03;;;;;;;7.22;4.00;;;24.10;95.10;;;;;;4914455;29;20036;-82
2022/08/29 08:23:29;;;;;;;7.03;4.45;;;24.20;94.90;;;;;;4914765;29;20027;-82
2022/08/29 08:25:54;;;;;;;8.02;4.13;;;24.20;94.80;;;;;;4914177;29;20425;-82
2022/08/29 08:28:20;;;;;;;8.23;4.65;;;24.30;95.00;;;;;;4914752;29;20027;-82
2022/08/29 08:30:46;;;;;;;8.25;4.72;;;24.40;94.60;;;;;;4895183;29;20033;-82
2022/08/29 08:33:11;;;;;;;6.50;4.07;;;24.60;94.40;;;;;;4891267;29;20454;-83
2022/08/29 08:35:38;;;;;;;6.38;4.30;;;24.60;94.40;;;;;;4912835;29;20545;-82
2022/08/29 08:38:07;;;;;;;11.32;4.50;;;24.80;94.50;;;;;;4913924;29;20016;-82
2022/08/29 08:40:35;;;;;;;6.32;4.00;;;24.80;94.40;;;;;;4897301;29;20032;-82
2022/08/29 08:43:02;;;;;;;8.57;4.20;;;25.00;94.30;;;;;;4914384;29;20081;-82
2022/08/29 08:45:41;;;;;;;4.90;3.92;;;25.00;94.10;;;;;;4914021;29;20450;-82
2022/08/29 08:48:18;;;;;;;7.00;4.10;;;25.10;94.00;;;;;;4913757;29;20055;-82
2022/08/29 08:51:06;;;;;;;5.82;4.30;;;25.20;93.80;;;;;;4913805;29;20028;-82
2022/08/29 08:53:32;;;;;;;6.95;4.07;;;25.30;93.70;;;;;;4913504;29;20159;-82
2022/08/29 08:56:00;;;;;;;6.25;3.72;;;25.50;93.60;;;;;;4913667;29;20028;-82
2022/08/29 08:58:52;;;;;;;9.85;3.90;;;25.60;93.70;;;;;;4913649;29;20020;-82
2022/08/29 09:01:20;;;;;;;5.88;3.47;;;25.70;93.50;;;;;;4914204;29;20059;-82
2022/08/29 09:04:08;;;;;;;6.82;3.58;;;25.80;93.30;;;;;;4913514;29;20613;-82
2022/08/29 09:06:41;;;;;;;7.22;3.75;;;25.90;93.50;;;;;;4914054;29;20043;-82
2022/08/29 09:09:25;;;;;;;5.70;4.00;;;26.10;93.00;;;;;;4913812;29;20020;-82
2022/08/29 09:12:03;;;;;;;6.18;3.67;;;26.20;92.70;;;;;;4907324;29;20040;-82
2022/08/29 09:14:40;;;;;;;7.03;3.67;;;26.30;92.80;;;;;;4913452;29;20071;-82
2022/08/29 09:17:08;;;;;;;4.43;3.40;;;26.50;92.60;;;;;;4913288;29;20698;-82
2022/08/29 09:19:34;;;;;;;6.13;3.83;;;26.60;92.60;;;;;;4913433;29;20592;-82
2022/08/29 09:22:13;;;;;;;6.22;3.85;;;26.70;92.30;;;;;;4913859;29;20087;-82
2022/08/29 09:24:57;;;;;;;5.63;3.40;;;26.80;92.10;;;;;;4913264;29;20505;-82
2022/08/29 09:27:27;;;;;;;7.90;3.50;;;26.90;91.90;;;;;;4913308;29;20084;-82
2022/08/29 09:30:29;;;;;;;8.63;3.55;;;26.90;91.90;;;;;;4896457;29;20032;-82
2022/08/29 09:32:57;;;;;;;6.25;3.60;;;26.90;92.00;;;;;;4879982;29;20029;-83
2022/08/29 09:35:36;;;;;;;8.45;3.28;;;26.90;91.90;;;;;;4907650;29;20048;-82
2022/08/29 09:38:20;;;;;;;4.43;3.47;;;27.00;91.90;;;;;;4887278;29;20029;-83
2022/08/29 09:40:45;;;;;;;5.45;3.50;;;27.30;91.60;;;;;;4909415;29;20050;-82
2022/08/29 09:43:22;;;;;;;3.92;3.20;;;27.50;91.20;;;;;;4913782;29;20498;-82
2022/08/29 09:46:10;;;;;;;5.28;3.25;;;27.70;91.50;;;;;;4900165;29;20107;-82
2022/08/29 09:48:44;;;;;;;5.43;3.35;;;27.90;91.30;;;;;;4916675;29;20028;-83
2022/08/29 09:51:30;;;;;;;3.53;3.00;;;28.00;90.60;;;;;;4912097;29;20393;-83
2022/08/29 09:54:13;;;;;;;7.85;3.40;;;27.90;90.60;;;;;;4895393;29;20132;-82
2022/08/29 09:56:48;;;;;;;5.55;3.00;;;27.70;90.80;;;;;;4917232;29;20103;-82
2022/08/29 09:59:28;;;;;;;6.32;3.15;;;27.70;90.70;;;;;;4916774;29;20216;-82
2022/08/29 10:02:27;;;;;;;5.35;3.20;;;27.60;90.90;;;;;;4911999;29;20434;-82
2022/08/29 10:05:08;;;;;;;4.82;3.08;;;27.80;91.00;;;;;;4916810;29;20123;-82
2022/08/29 10:07:51;;;;;;;9.63;3.10;;;28.10;91.30;;;;;;4916829;29;20024;-83
2022/08/29 10:10:26;;;;;;;8.00;3.47;;;28.30;90.80;;;;;;4912057;29;20029;-82
2022/08/29 10:13:16;;;;;;;8.02;3.50;;;28.30;90.40;;;;;;4916910;29;20028;-82
2022/08/29 10:15:59;;;;;;;5.57;3.28;;;28.40;90.40;;;;;;4916472;29;20461;-82
2022/08/29 10:18:41;;;;;;;7.28;3.00;;;28.50;90.40;;;;;;4900893;29;20445;-82
2022/08/29 10:21:11;;;;;;;7.20;3.30;;;28.70;89.90;;;;;;4919191;29;20225;-82
2022/08/29 10:24:08;;;;;;;5.50;3.40;;;28.70;90.10;;;;;;4897517;29;20020;-82
2022/08/29 10:27:19;;;;;;;5.05;2.88;;;28.90;89.50;;;;;;4916486;29;20052;-82
2022/08/29 10:29:54;;;;;;;4.40;3.20;;;29.10;88.80;;;;;;4820953;29;20681;-83
2022/08/29 10:32:44;;;;;;;7.35;3.10;;;29.20;89.20;;;;;;4903145;29;20474;-82
2022/08/29 10:36:21;;;;;;;6.40;3.05;;;29.30;88.00;;;;;;4912883;29;20054;-82
2022/08/29 10:38:59;;;;;;;3.42;2.80;;;29.50;87.40;;;;;;4864566;29;20078;-82
2022/08/29 10:41:56;;;;;;;5.43;2.67;;;29.60;87.10;;;;;;4896852;29;20074;-83
2022/08/29 10:44:31;;;;;;;6.35;3.22;;;29.70;86.40;;;;;;4894799;29;20036;-82
2022/08/29 10:47:25;;;;;;;5.40;2.83;;;29.80;86.60;;;;;;4915471;29;20024;-82
2022/08/29 10:49:57;;;;;;;4.72;2.83;;;30.00;86.20;;;;;;4918148;29;20516;-83
2022/08/29 10:52:51;;;;;;;7.20;3.00;;;30.10;85.80;;;;;;4915903;29;20028;-83
2022/08/29 10:55:54;;;;;;;8.23;3.53;;;30.20;84.90;;;;;;4909113;29;20040;-82
2022/08/29 10:58:32;;;;;;;8.48;4.63;;;30.40;84.90;;;;;;4914190;29;20645;-82
2022/08/29 11:01:19;;;;;;;4.97;2.80;;;30.40;84.30;;;;;;4915740;29;20068;-82
2022/08/29 11:04:19;;;;;;;4.22;2.97;;;30.60;84.40;;;;;;4911813;29;20111;-82
2022/08/29 11:06:56;;;;;;;3.83;3.00;;;30.80;83.50;;;;;;4899123;29;20413;-82
2022/08/29 11:09:35;;;;;;;3.63;2.75;;;30.90;83.10;;;;;;4915710;29;20618;-82
2022/08/29 11:12:17;;;;;;;6.25;2.78;;;31.00;82.60;;;;;;4915726;29;20225;-82
2022/08/29 11:14:57;;;;;;;5.00;2.65;;;31.20;82.30;;;;;;4914107;29;20043;-83
2022/08/29 11:17:28;;;;;;;6.10;2.30;;;31.20;81.60;;;;;;4915121;29;20068;-83
2022/08/29 11:20:25;;;;;;;6.25;2.60;;;31.40;81.30;;;;;;4915691;29;20405;-83
2022/08/29 11:23:00;;;;;;;4.30;2.40;;;31.50;81.70;;;;;;4912864;29;20035;-82
2022/08/29 11:25:28;;;;;;;5.78;2.38;;;31.70;81.60;;;;;;4915289;29;20044;-82
2022/08/29 11:27:54;;;;;;;3.13;2.78;;;31.90;80.70;;;;;;4914092;29;20031;-83
2022/08/29 11:30:35;;;;;;;5.13;3.83;;;31.90;80.80;;;;;;4915305;29;20115;-83
2022/08/29 11:33:14;;;;;;;7.28;2.75;;;32.00;80.40;;;;;;4915165;29;20497;-83
2022/08/29 11:36:10;;;;;;;3.88;2.33;;;32.00;80.00;;;;;;4890525;29;20087;-83
2022/08/29 11:39:03;;;;;;;7.38;2.22;;;32.20;78.80;;;;;;4914857;29;20016;-83
2022/08/29 11:41:36;;;;;;;4.22;2.50;;;32.40;78.60;;;;;;4910450;29;20040;-83
2022/08/29 11:44:13;;;;;;;10.10;2.25;;;32.50;77.90;;;;;;4914739;29;20091;-83
2022/08/29 11:46:40;;;;;;;6.38;2.50;;;32.60;78.60;;;;;;4915189;29;20423;-83
2022/08/29 11:49:34;;;;;;;9.00;2.40;;;32.70;77.00;;;;;;4914922;29;20576;-83
2022/08/29 11:52:15;;;;;;;4.55;2.33;;;32.80;77.00;;;;;;4915037;29;20028;-83
2022/08/29 11:54:53;;;;;;;4.60;2.10;;;32.90;77.10;;;;;;4910478;29;20047;-83
2022/08/29 11:57:18;;;;;;;4.13;2.35;;;33.00;76.50;;;;;;4897875;29;20071;-83
2022/08/29 11:59:49;;;;;;;5.13;2.10;;;33.20;76.90;;;;;;4914785;29;20032;-83
2022/08/29 12:02:28;;;;;;;5.57;2.33;;;33.20;75.50;;;;;;4914945;29;20033;-83
2022/08/29 12:04:55;;;;;;;6.82;2.28;;;33.30;75.20;;;;;;4914791;29;20477;-83
2022/08/29 12:07:32;;;;;;;4.20;1.92;;;33.30;75.00;;;;;;4892816;29;20401;-83
2022/08/29 12:10:01;;;;;;;3.95;2.55;;;33.50;73.70;;;;;;4915094;29;20443;-83
2022/08/29 12:12:37;;;;;;;6.20;2.22;;;33.50;74.10;;;;;;4914460;29;20064;-83
2022/08/29 12:15:33;;;;;;;5.25;2.13;;;33.50;74.40;;;;;;4908825;29;20083;-83
2022/08/29 12:17:58;;;;;;;4.03;1.88;;;33.60;73.30;;;;;;4889574;29;20233;-84
2022/08/29 12:20:30;;;;;;;8.25;2.20;;;33.80;73.50;;;;;;4914508;29;20208;-83
2022/08/29 12:23:06;;;;;;;2.67;1.98;;;33.90;71.20;;;;;;4914494;29;20091;-83
2022/08/29 12:25:42;;;;;;;6.68;1.77;;;34.00;71.10;;;;;;4914279;29;20509;-83
2022/08/29 12:28:10;;;;;;;3.03;1.60;;;34.10;70.40;;;;;;4887892;29;20383;-83
2022/08/29 12:30:42;;;;;;;4.35;2.10;;;34.20;70.50;;;;;;4908225;29;20028;-83
2022/08/29 12:33:39;;;;;;;2.58;1.80;;;34.30;69.80;;;;;;4890198;29;20035;-83
2022/08/29 12:36:29;;;;;;;5.00;1.77;;;34.60;67.70;;;;;;4914142;29;20397;-83
2022/08/29 12:39:29;;;;;;;5.28;2.00;;;34.80;69.00;;;;;;4908412;29;20107;-83
2022/08/29 12:42:06;;;;;;;2.80;1.77;;;34.90;68.50;;;;;;4893519;29;20032;-83
2022/08/29 12:44:42;;;;;;;4.93;1.80;;;34.90;68.20;;;;;;4914271;29;20060;-83
2022/08/29 12:47:18;;;;;;;3.55;1.60;;;34.80;66.40;;;;;;4914156;29;20079;-83
2022/08/29 12:49:50;;;;;;;3.92;1.83;;;34.90;65.20;;;;;;4913852;29;20511;-83
2022/08/29 12:52:36;;;;;;;6.05;2.10;;;35.10;67.60;;;;;;4914433;29;20028;-83
2022/08/29 12:55:25;;;;;;;3.58;1.80;;;35.40;67.40;;;;;;4913828;29;20040;-83
2022/08/29 12:57:52;;;;;;;3.95;1.90;;;35.50;66.10;;;;;;4913801;29;20040;-83
2022/08/29 13:00:22;;;;;;;3.70;1.83;;;35.60;66.10;;;;;;4913808;29;20115;-83
2022/08/29 13:03:10;;;;;;;3.38;1.60;;;35.80;66.00;;;;;;4913805;29;20024;-83
2022/08/29 13:05:39;;;;;;;4.10;1.85;;;36.00;64.40;;;;;;4896642;29;20028;-83
2022/08/29 13:08:11;;;;;;;5.78;1.67;;;36.20;64.00;;;;;;4913973;29;20031;-83
2022/08/29 13:10:50;;;;;;;3.70;1.60;;;36.30;64.40;;;;;;4913781;29;20035;-84
2022/08/29 13:13:19;;;;;;;5.20;1.80;;;36.50;64.60;;;;;;4913713;29;20568;-83